Time;durP1;ratioP1;P1;durP2;ratioP2;P2;SDS_P1;SDS_P2;PMS_P1;PMS_P2;Temp;Humidity;BMP_temperature;BMP_pressure;BME280_temperature;BME280_humidity;BME280_pressure;Samples;Min_cycle;Max_cycle;Signal;HPM_P1;HPM_P2
2023/10/14 00:01:55;;;;;;;8.48;1.38;;;12.50;67.20;;;;;;5009706;28;20187;-76
2023/10/14 00:04:26;;;;;;;8.70;1.80;;;12.50;66.80;;;;;;5012455;28;20448;-76
2023/10/14 00:06:54;;;;;;;6.60;1.52;;;12.50;66.80;;;;;;5015032;28;20037;-74
2023/10/14 00:09:21;;;;;;;9.02;2.10;;;12.50;66.80;;;;;;5024953;28;20075;-75
2023/10/14 00:11:54;;;;;;;4.75;1.88;;;12.50;66.80;;;;;;5017317;28;20504;-74
2023/10/14 00:14:21;;;;;;;8.32;1.55;;;12.50;66.80;;;;;;5008003;28;20431;-75
2023/10/14 00:16:51;;;;;;;8.13;2.30;;;12.50;66.80;;;;;;5018837;28;20076;-74
2023/10/14 00:19:21;;;;;;;6.93;1.90;;;12.50;66.70;;;;;;5014808;28;20084;-77
2023/10/14 00:21:48;;;;;;;4.90;1.85;;;12.40;66.60;;;;;;5018125;28;20488;-76
2023/10/14 00:24:39;;;;;;;5.05;1.88;;;12.40;66.50;;;;;;5015512;28;20065;-76
2023/10/14 00:27:07;;;;;;;6.68;2.08;;;12.40;66.60;;;;;;5014634;28;20400;-75
2023/10/14 00:29:35;;;;;;;4.25;2.10;;;12.40;66.60;;;;;;5014781;28;20037;-75
2023/10/14 00:32:03;;;;;;;4.95;1.83;;;12.40;66.50;;;;;;5014916;28;20030;-75
2023/10/14 00:34:29;;;;;;;8.27;2.50;;;12.40;66.50;;;;;;5006209;28;20029;-75
2023/10/14 00:36:56;;;;;;;8.65;1.98;;;12.40;66.50;;;;;;5012616;28;20051;-76
2023/10/14 00:39:24;;;;;;;5.28;1.67;;;12.40;66.50;;;;;;5018137;28;20288;-75
2023/10/14 00:41:50;;;;;;;10.27;2.80;;;12.40;66.40;;;;;;5006217;28;20036;-76
2023/10/14 00:44:17;;;;;;;7.35;2.40;;;12.40;66.40;;;;;;5013974;28;20041;-76
2023/10/14 00:46:50;;;;;;;6.93;1.75;;;12.40;66.50;;;;;;5010200;28;20715;-76
2023/10/14 00:49:18;;;;;;;6.65;1.88;;;12.40;66.50;;;;;;5003293;28;20049;-75
2023/10/14 00:51:49;;;;;;;5.22;2.00;;;12.40;66.50;;;;;;5010742;28;20029;-76
2023/10/14 00:57:19;;;;;;;3.83;1.55;;;12.30;66.40;;;;;;5038194;28;20501;-74
2023/10/14 01:26:22;;;;;;;6.90;2.50;;;12.10;66.40;;;;;;5020776;28;20032;-75
2023/10/14 01:28:58;;;;;;;3.67;1.40;;;12.00;66.30;;;;;;5011877;28;20096;-75
2023/10/14 01:32:10;;;;;;;4.53;1.70;;;12.00;66.40;;;;;;5013558;28;20034;-75
2023/10/14 01:34:42;;;;;;;7.65;1.50;;;12.00;66.40;;;;;;5007279;28;20484;-75
2023/10/14 01:37:19;;;;;;;6.25;1.48;;;12.00;66.50;;;;;;5013345;28;20065;-75
2023/10/14 01:39:49;;;;;;;5.50;1.50;;;12.00;66.50;;;;;;5011129;28;20306;-76
2023/10/14 01:42:19;;;;;;;8.40;1.38;;;12.00;66.50;;;;;;5005218;28;20234;-76
2023/10/14 01:44:45;;;;;;;4.53;1.27;;;12.00;66.50;;;;;;5021772;28;20476;-75
2023/10/14 01:47:11;;;;;;;7.80;1.35;;;12.00;66.50;;;;;;5010296;28;20038;-75
2023/10/14 01:49:40;;;;;;;5.13;1.45;;;12.00;66.50;;;;;;5010164;28;20469;-75
2023/10/14 01:52:08;;;;;;;5.72;1.27;;;12.00;66.60;;;;;;5015028;28;20037;-75
2023/10/14 01:54:39;;;;;;;5.32;1.63;;;12.00;66.60;;;;;;5017129;28;20560;-76
2023/10/14 01:57:15;;;;;;;8.77;1.95;;;12.00;66.60;;;;;;5012291;28;20596;-76
2023/10/14 01:59:43;;;;;;;6.00;2.55;;;12.00;66.60;;;;;;5005883;28;20436;-75
2023/10/14 02:02:09;;;;;;;3.67;1.83;;;11.90;66.50;;;;;;5010666;28;20257;-76
2023/10/14 02:04:36;;;;;;;4.40;1.98;;;11.90;66.50;;;;;;5015521;28;20033;-76
2023/10/14 02:07:21;;;;;;;6.82;1.23;;;11.90;66.60;;;;;;4997272;28;20077;-76
2023/10/14 02:09:55;;;;;;;3.85;1.55;;;11.90;66.60;;;;;;5016501;28;20048;-76
2023/10/14 02:12:24;;;;;;;4.50;1.73;;;11.90;66.60;;;;;;5013084;28;20139;-76
2023/10/14 02:14:57;;;;;;;4.57;1.20;;;11.80;66.50;;;;;;5016809;28;20043;-74
2023/10/14 02:17:24;;;;;;;6.63;1.45;;;11.80;66.60;;;;;;5006786;28;20477;-73
2023/10/14 02:19:54;;;;;;;2.00;1.30;;;11.80;66.60;;;;;;5004750;28;20053;-74
2023/10/14 02:22:23;;;;;;;5.90;1.55;;;11.80;66.70;;;;;;5014274;28;20049;-76
2023/10/14 02:24:56;;;;;;;6.15;1.30;;;11.80;66.70;;;;;;5016815;28;20040;-75
2023/10/14 02:27:24;;;;;;;5.65;1.35;;;11.70;66.60;;;;;;5008190;28;20078;-75
2023/10/14 02:29:51;;;;;;;5.45;1.85;;;11.70;66.60;;;;;;5015538;28;20550;-75
2023/10/14 02:32:20;;;;;;;7.03;1.58;;;11.70;66.70;;;;;;5020211;28;20776;-76
2023/10/14 02:34:47;;;;;;;7.43;1.20;;;11.60;66.60;;;;;;5011044;28;20338;-75
2023/10/14 02:37:14;;;;;;;6.90;1.70;;;11.60;66.60;;;;;;5016244;28;20033;-76
2023/10/14 02:39:43;;;;;;;6.40;1.52;;;11.60;66.70;;;;;;5012194;28;20092;-76
2023/10/14 02:42:14;;;;;;;9.88;1.80;;;11.60;67.30;;;;;;5040549;28;20049;-76
2023/10/14 02:44:52;;;;;;;7.03;1.33;;;11.50;66.60;;;;;;5010954;28;20036;-77
2023/10/14 02:47:26;;;;;;;6.63;1.60;;;11.50;66.70;;;;;;5011930;28;20026;-77
2023/10/14 02:50:01;;;;;;;4.95;1.67;;;11.50;66.80;;;;;;5015581;28;20026;-77
2023/10/14 02:52:31;;;;;;;6.45;1.67;;;11.40;66.70;;;;;;5008094;28;20594;-76
2023/10/14 02:57:46;;;;;;;8.52;2.78;;;11.30;66.60;;;;;;5019690;28;20029;-76
2023/10/14 03:00:33;;;;;;;5.75;1.33;;;11.30;66.70;;;;;;5007906;28;20021;-76
2023/10/14 03:03:10;;;;;;;6.43;1.67;;;11.20;67.10;;;;;;5005220;28;20390;-77
2023/10/14 03:05:51;;;;;;;5.03;1.27;;;11.20;66.60;;;;;;4993396;28;20025;-77
2023/10/14 03:08:22;;;;;;;3.85;1.30;;;11.10;66.50;;;;;;4980248;28;20276;-77
2023/10/14 03:10:55;;;;;;;4.53;1.23;;;11.10;66.60;;;;;;5008959;28;20119;-78
2023/10/14 03:13:29;;;;;;;7.35;1.73;;;11.00;66.50;;;;;;4993895;28;20500;-77
2023/10/14 03:16:00;;;;;;;9.95;2.00;;;11.00;66.60;;;;;;4998416;28;20077;-77
2023/10/14 03:18:37;;;;;;;7.03;1.27;;;10.90;66.50;;;;;;4998814;28;20037;-76
2023/10/14 03:21:09;;;;;;;5.70;1.42;;;10.90;66.50;;;;;;4980650;28;20034;-76
2023/10/14 03:23:41;;;;;;;;;;;10.90;66.60;;;;;;4998365;28;20046;-76
2023/10/14 03:26:15;;;;;;;4.47;1.27;;;10.80;66.40;;;;;;5024137;28;20354;-76
2023/10/14 03:28:44;;;;;;;4.47;1.40;;;10.80;67.00;;;;;;4993222;28;20473;-75
2023/10/14 03:31:17;;;;;;;3.22;1.08;;;10.70;66.30;;;;;;4992161;28;20025;-76
2023/10/14 03:33:46;;;;;;;6.38;1.35;;;10.70;66.40;;;;;;5000153;28;20322;-76
2023/10/14 03:36:15;;;;;;;4.28;1.85;;;10.70;66.60;;;;;;4993172;28;20577;-76
2023/10/14 03:38:46;;;;;;;5.43;1.45;;;10.70;66.50;;;;;;4994546;28;20596;-75
2023/10/14 03:42:09;;;;;;;5.32;1.70;;;10.60;66.40;;;;;;4999039;28;20467;-76
2023/10/14 03:44:05;;;;;;;7.85;1.58;;;10.60;66.50;;;;;;4994372;28;20760;-77
2023/10/14 03:46:43;;;;;;;5.80;1.73;;;10.60;66.50;;;;;;4993456;28;20064;-77
2023/10/14 03:49:22;;;;;;;4.22;1.33;;;10.50;66.40;;;;;;4993378;28;20090;-77
2023/10/14 03:51:54;;;;;;;5.38;1.05;;;10.50;66.40;;;;;;4994781;28;20119;-78
2023/10/14 03:54:24;;;;;;;4.28;1.00;;;10.50;66.50;;;;;;4995362;28;20681;-78
2023/10/14 03:56:52;;;;;;;5.80;1.40;;;10.50;67.10;;;;;;4983283;28;20048;-78
2023/10/14 03:59:21;;;;;;;5.05;1.50;;;10.50;66.60;;;;;;4990348;28;20286;-78
2023/10/14 04:01:54;;;;;;;4.97;1.20;;;10.50;66.60;;;;;;4994482;28;20321;-79
2023/10/14 04:04:21;;;;;;;7.25;1.98;;;10.40;66.50;;;;;;5024641;28;20451;-75
2023/10/14 04:10:08;;;;;;;6.60;1.58;;;10.40;66.60;;;;;;4993194;28;20137;-76
2023/10/14 04:12:52;;;;;;;5.32;1.33;;;10.40;66.60;;;;;;4999068;28;20042;-77
2023/10/14 04:17:55;;;;;;;5.68;1.40;;;10.40;66.70;;;;;;4992994;28;20532;-76
2023/10/14 04:20:32;;;;;;;2.35;1.75;;;10.40;66.70;;;;;;4998837;28;20092;-77
2023/10/14 04:23:05;;;;;;;11.00;1.67;;;10.50;66.90;;;;;;4998747;28;20353;-78
2023/10/14 04:25:47;;;;;;;4.10;0.90;;;10.40;66.70;;;;;;4993508;28;20033;-77
2023/10/14 04:30:44;;;;;;;7.45;1.33;;;10.40;66.70;;;;;;4992959;28;20033;-77
2023/10/14 04:33:18;;;;;;;5.43;1.10;;;10.50;66.90;;;;;;4983780;28;20084;-77
2023/10/14 04:35:58;;;;;;;6.13;1.67;;;10.50;67.00;;;;;;4994117;28;20058;-77
2023/10/14 04:38:28;;;;;;;4.90;1.30;;;10.50;67.00;;;;;;4983025;28;20576;-77
2023/10/14 04:40:58;;;;;;;7.97;1.30;;;10.50;67.00;;;;;;4986236;28;20548;-78
2023/10/14 04:46:13;;;;;;;5.22;2.20;;;10.50;67.00;;;;;;4998763;28;20037;-76
2023/10/14 04:48:39;;;;;;;8.00;1.95;;;10.50;67.10;;;;;;4994571;28;20036;-77
2023/10/14 04:51:09;;;;;;;6.75;1.20;;;10.50;67.10;;;;;;4998818;28;20029;-77
2023/10/14 04:53:36;;;;;;;7.13;1.35;;;10.50;67.10;;;;;;4979195;28;20076;-77
2023/10/14 04:56:09;;;;;;;6.18;1.35;;;10.50;67.10;;;;;;4996469;28;20033;-77
2023/10/14 04:58:40;;;;;;;6.47;1.58;;;10.60;67.20;;;;;;4998526;28;20036;-77
2023/10/14 05:01:17;;;;;;;2.88;1.20;;;10.60;67.20;;;;;;5025503;28;20033;-76
2023/10/14 05:03:44;;;;;;;4.15;1.40;;;10.60;67.20;;;;;;4995033;28;20600;-77
2023/10/14 05:08:49;;;;;;;7.30;1.70;;;10.60;67.20;;;;;;4996331;28;20535;-76
2023/10/14 05:11:18;;;;;;;7.18;1.38;;;10.60;67.20;;;;;;4994927;28;20645;-76
2023/10/14 05:16:29;;;;;;;7.38;1.42;;;10.60;67.20;;;;;;5000091;28;20301;-76
2023/10/14 05:19:06;;;;;;;6.55;1.60;;;10.70;67.40;;;;;;4995853;28;20037;-76
2023/10/14 05:21:35;;;;;;;5.63;1.98;;;10.60;67.20;;;;;;4994704;28;20033;-76
2023/10/14 05:24:11;;;;;;;4.28;1.10;;;10.60;67.20;;;;;;4994807;28;20405;-77
2023/10/14 05:26:45;;;;;;;10.27;1.52;;;10.60;67.20;;;;;;4993312;28;20018;-75
2023/10/14 05:29:19;;;;;;;7.65;1.98;;;10.60;67.30;;;;;;4994773;28;20092;-75
2023/10/14 05:31:50;;;;;;;7.28;1.30;;;10.60;67.30;;;;;;4995795;28;20135;-76
2023/10/14 05:34:17;;;;;;;6.25;1.40;;;10.60;67.30;;;;;;4995221;28;20041;-76
2023/10/14 05:36:44;;;;;;;5.00;1.33;;;10.60;67.30;;;;;;4995334;28;20601;-76
2023/10/14 05:39:10;;;;;;;5.28;1.20;;;10.60;67.30;;;;;;4997609;28;20405;-75
2023/10/14 05:41:37;;;;;;;5.22;1.20;;;10.60;67.30;;;;;;4994933;28;20037;-76
2023/10/14 05:44:05;;;;;;;10.20;2.13;;;10.60;67.30;;;;;;4995635;28;20557;-77
2023/10/14 05:46:31;;;;;;;4.05;0.80;;;10.60;67.30;;;;;;4995506;28;20053;-77
2023/10/14 05:48:57;;;;;;;6.93;1.05;;;10.60;67.30;;;;;;4995133;28;20128;-77
2023/10/14 05:51:23;;;;;;;9.55;1.40;;;10.60;67.30;;;;;;4999914;28;20498;-76
2023/10/14 05:53:50;;;;;;;7.43;1.55;;;10.60;67.30;;;;;;4992603;28;20029;-76
2023/10/14 05:56:16;;;;;;;6.15;2.15;;;10.60;67.30;;;;;;4993163;28;20198;-75
2023/10/14 05:58:43;;;;;;;6.45;1.40;;;10.60;67.40;;;;;;4995300;28;20030;-76
2023/10/14 06:01:10;;;;;;;5.28;0.95;;;10.50;67.20;;;;;;4993641;28;20034;-76
2023/10/14 06:03:37;;;;;;;9.13;1.10;;;10.50;67.30;;;;;;4992389;28;20137;-75
2023/10/14 06:06:09;;;;;;;6.93;1.00;;;10.50;67.30;;;;;;4991405;28;20072;-75
2023/10/14 06:08:37;;;;;;;5.87;2.17;;;10.50;67.30;;;;;;4992934;28;20038;-74
2023/10/14 06:11:05;;;;;;;7.00;1.65;;;10.40;67.20;;;;;;4992599;28;20665;-75
2023/10/14 06:13:33;;;;;;;4.53;1.40;;;10.40;67.30;;;;;;4991440;28;20090;-75
2023/10/14 06:16:04;;;;;;;4.22;1.60;;;10.40;67.40;;;;;;5005836;28;20026;-75
2023/10/14 06:18:31;;;;;;;4.97;1.02;;;10.40;67.40;;;;;;4993592;28;20041;-76
2023/10/14 06:20:59;;;;;;;3.90;1.60;;;10.30;67.20;;;;;;4990453;28;20613;-75
2023/10/14 06:23:28;;;;;;;4.50;1.33;;;10.30;67.30;;;;;;4991670;28;20641;-74
2023/10/14 06:25:56;;;;;;;5.18;1.35;;;10.30;67.30;;;;;;4991241;28;20029;-75
2023/10/14 06:28:22;;;;;;;4.75;1.17;;;10.20;67.10;;;;;;4991402;28;20072;-74
2023/10/14 06:30:50;;;;;;;6.07;1.10;;;10.20;67.20;;;;;;4989425;28;20153;-74
2023/10/14 06:33:16;;;;;;;3.75;0.80;;;10.20;67.20;;;;;;4991814;28;20353;-74
2023/10/14 06:35:42;;;;;;;6.45;1.73;;;10.20;67.20;;;;;;4994120;28;20029;-74
2023/10/14 06:38:17;;;;;;;5.88;1.95;;;10.10;67.10;;;;;;4991905;28;20058;-75
2023/10/14 06:40:44;;;;;;;3.50;1.08;;;10.20;67.20;;;;;;4992084;28;20171;-74
2023/10/14 06:43:12;;;;;;;4.70;1.08;;;10.10;67.10;;;;;;4991464;28;20149;-75
2023/10/14 06:45:38;;;;;;;4.05;0.98;;;10.10;67.10;;;;;;4992392;28;20554;-74
2023/10/14 06:48:09;;;;;;;6.60;1.35;;;10.20;67.30;;;;;;4991696;28;20124;-75
2023/10/14 06:50:42;;;;;;;3.95;1.20;;;10.10;67.10;;;;;;4990439;28;20059;-77
2023/10/14 06:53:08;;;;;;;4.03;1.40;;;10.10;67.10;;;;;;4993540;28;20094;-78
2023/10/14 06:55:37;;;;;;;3.22;0.90;;;10.10;67.10;;;;;;4990921;28;20045;-78
2023/10/14 06:58:05;;;;;;;4.43;1.08;;;10.10;67.30;;;;;;4991446;28;20539;-77
2023/10/14 07:00:32;;;;;;;4.57;1.00;;;10.10;67.40;;;;;;4990884;28;20792;-77
2023/10/14 07:02:59;;;;;;;4.40;1.35;;;10.20;67.50;;;;;;4997565;28;20051;-77
2023/10/14 07:05:28;;;;;;;4.32;0.82;;;10.20;67.50;;;;;;5021945;28;20591;-78
2023/10/14 07:07:55;;;;;;;4.60;2.00;;;10.20;67.50;;;;;;5018175;28;20051;-77
2023/10/14 07:10:27;;;;;;;11.75;2.45;;;10.20;67.50;;;;;;5006768;28;20055;-78
2023/10/14 07:13:00;;;;;;;7.15;1.23;;;10.20;67.50;;;;;;5025449;28;20402;-78
2023/10/14 07:15:34;;;;;;;4.95;1.00;;;10.20;67.50;;;;;;5018387;28;20075;-78
2023/10/14 07:18:01;;;;;;;5.47;1.52;;;10.30;67.70;;;;;;5016874;28;20037;-78
2023/10/14 07:20:29;;;;;;;6.60;1.20;;;10.30;67.70;;;;;;5018219;28;20060;-78
2023/10/14 07:22:58;;;;;;;7.40;1.10;;;10.30;67.60;;;;;;5017271;28;20046;-77
2023/10/14 07:25:32;;;;;;;5.18;1.55;;;10.40;67.80;;;;;;5014446;28;20025;-74
2023/10/14 07:27:59;;;;;;;3.80;1.10;;;10.40;67.80;;;;;;5003553;28;20080;-76
2023/10/14 07:30:27;;;;;;;4.07;1.20;;;10.50;67.90;;;;;;5007519;28;20032;-76
2023/10/14 07:32:55;;;;;;;4.30;1.10;;;10.50;67.80;;;;;;5014338;28;20061;-76
2023/10/14 07:35:22;;;;;;;3.47;1.02;;;10.60;68.00;;;;;;5019557;28;20115;-77
2023/10/14 07:37:50;;;;;;;4.40;1.00;;;10.70;68.10;;;;;;5015082;28;20029;-74
2023/10/14 07:40:26;;;;;;;4.70;1.50;;;10.70;68.10;;;;;;5015532;28;20041;-77
2023/10/14 07:43:15;;;;;;;7.85;1.77;;;10.80;68.30;;;;;;5021234;28;20271;-75
2023/10/14 07:45:46;;;;;;;11.40;2.50;;;10.90;68.70;;;;;;5013285;28;20493;-75
2023/10/14 07:48:13;;;;;;;13.75;2.35;;;11.00;68.70;;;;;;5012145;28;20037;-75
2023/10/14 07:50:39;;;;;;;10.38;2.13;;;11.00;68.70;;;;;;5008630;28;20065;-74
2023/10/14 07:53:12;;;;;;;8.82;2.40;;;11.10;68.90;;;;;;5024895;28;20290;-79
2023/10/14 07:55:47;;;;;;;11.68;2.28;;;11.10;69.00;;;;;;5010822;28;20037;-74
2023/10/14 07:58:23;;;;;;;7.75;1.73;;;11.20;69.40;;;;;;5003425;28;20025;-76
2023/10/14 08:00:50;;;;;;;6.07;1.70;;;11.30;70.40;;;;;;5011920;28;20214;-74
2023/10/14 08:03:18;;;;;;;7.72;2.05;;;11.40;70.00;;;;;;5011337;28;20331;-74
2023/10/14 08:05:49;;;;;;;5.85;2.20;;;11.40;69.90;;;;;;5007578;28;20091;-74
2023/10/14 08:08:16;;;;;;;4.63;1.60;;;11.50;70.00;;;;;;5010071;28;21101;-74
2023/10/14 08:10:45;;;;;;;10.23;3.05;;;11.50;70.00;;;;;;5020680;28;20163;-74
2023/10/14 08:13:18;;;;;;;4.38;1.00;;;11.50;69.90;;;;;;5015803;28;20041;-75
2023/10/14 08:15:44;;;;;;;7.18;1.15;;;11.50;70.00;;;;;;5024833;28;20028;-74
2023/10/14 08:18:13;;;;;;;6.20;1.00;;;11.50;69.90;;;;;;5012510;28;20480;-74
2023/10/14 08:20:42;;;;;;;6.53;0.98;;;11.50;69.90;;;;;;5016240;28;20472;-74
2023/10/14 08:23:11;;;;;;;2.75;0.90;;;11.50;69.90;;;;;;5006203;28;20380;-74
2023/10/14 08:25:42;;;;;;;4.22;0.90;;;11.50;69.90;;;;;;5011851;28;20218;-75
2023/10/14 08:28:09;;;;;;;3.15;0.88;;;11.50;69.80;;;;;;5006886;28;20038;-76
2023/10/14 08:30:45;;;;;;;4.45;0.75;;;11.50;69.80;;;;;;5013645;28;20116;-76
2023/10/14 08:33:15;;;;;;;4.20;1.10;;;11.50;69.70;;;;;;5005521;28;20052;-75
2023/10/14 08:35:44;;;;;;;5.40;0.90;;;11.50;69.60;;;;;;5017666;28;20095;-74
2023/10/14 08:38:12;;;;;;;2.20;0.70;;;11.60;70.30;;;;;;5015541;28;20050;-75
2023/10/14 08:40:41;;;;;;;4.50;0.77;;;11.60;69.60;;;;;;5015820;28;20025;-75
2023/10/14 08:43:16;;;;;;;4.53;0.93;;;11.60;69.50;;;;;;5019975;28;20559;-75
2023/10/14 08:45:47;;;;;;;4.72;0.73;;;11.60;69.40;;;;;;5013287;28;20473;-75
2023/10/14 08:48:23;;;;;;;5.15;0.95;;;11.60;69.30;;;;;;5017262;28;20494;-75
2023/10/14 08:50:53;;;;;;;4.22;0.80;;;11.60;69.20;;;;;;5012445;28;20041;-74
2023/10/14 08:53:22;;;;;;;2.72;1.05;;;11.70;69.30;;;;;;5018947;28;20033;-76
2023/10/14 08:55:49;;;;;;;4.97;1.05;;;11.70;69.20;;;;;;5011617;28;20033;-74
2023/10/14 08:58:15;;;;;;;3.17;1.38;;;11.70;69.10;;;;;;5013880;28;20037;-75
2023/10/14 09:00:44;;;;;;;2.40;0.70;;;11.80;69.20;;;;;;5003622;28;20041;-75
2023/10/14 09:03:12;;;;;;;3.65;0.70;;;11.80;69.10;;;;;;5011741;28;20115;-75
2023/10/14 09:05:40;;;;;;;5.40;0.85;;;11.80;69.10;;;;;;4997470;28;20112;-76
2023/10/14 09:08:09;;;;;;;5.45;0.90;;;11.80;69.00;;;;;;5002238;28;20048;-77
2023/10/14 09:10:36;;;;;;;3.17;1.67;;;11.80;68.90;;;;;;5013073;28;20029;-77
2023/10/14 09:13:05;;;;;;;2.08;0.73;;;11.90;69.20;;;;;;5019945;28;20026;-76
2023/10/14 09:15:41;;;;;;;5.15;1.00;;;12.00;69.40;;;;;;5015935;28;20108;-77
2023/10/14 09:18:21;;;;;;;4.20;0.70;;;12.20;69.70;;;;;;5010467;28;20507;-77
2023/10/14 09:20:55;;;;;;;3.65;1.00;;;12.40;69.80;;;;;;5012266;28;20038;-77
2023/10/14 09:23:24;;;;;;;2.25;0.70;;;12.60;69.80;;;;;;5013530;28;20053;-77
2023/10/14 09:25:58;;;;;;;2.45;0.70;;;12.70;69.60;;;;;;5008390;28;20076;-77
2023/10/14 09:28:26;;;;;;;3.22;0.60;;;12.90;69.60;;;;;;5014682;28;20033;-79
2023/10/14 09:30:54;;;;;;;2.00;0.68;;;13.00;69.50;;;;;;5015546;28;20068;-76
2023/10/14 09:33:32;;;;;;;1.73;0.55;;;13.00;69.30;;;;;;5018344;28;20033;-76
2023/10/14 09:36:04;;;;;;;2.88;0.90;;;13.10;69.40;;;;;;5019703;28;20041;-76
2023/10/14 09:38:32;;;;;;;3.60;0.80;;;13.20;69.90;;;;;;5022032;28;20616;-75
2023/10/14 09:41:02;;;;;;;4.30;0.73;;;13.30;69.40;;;;;;5014465;28;20034;-75
2023/10/14 09:43:29;;;;;;;4.07;0.95;;;13.40;69.40;;;;;;5018541;28;20770;-75
2023/10/14 09:45:57;;;;;;;6.43;1.10;;;13.50;69.40;;;;;;5023560;28;20426;-76
2023/10/14 09:48:26;;;;;;;3.97;0.90;;;13.50;69.30;;;;;;5022682;28;20067;-76
2023/10/14 09:50:54;;;;;;;2.78;0.80;;;13.60;69.40;;;;;;5014697;28;20084;-76
2023/10/14 09:53:27;;;;;;;4.93;0.95;;;13.70;69.40;;;;;;5017030;28;20041;-74
2023/10/14 09:55:57;;;;;;;;;;;13.70;69.30;;;;;;5000826;28;20041;-76
2023/10/14 09:58:30;;;;;;;4.50;1.15;;;13.80;69.30;;;;;;5013401;28;20116;-76
2023/10/14 10:00:59;;;;;;;3.30;0.65;;;13.80;69.20;;;;;;5019774;28;20040;-77
2023/10/14 10:03:27;;;;;;;1.17;0.70;;;13.90;69.20;;;;;;5010998;28;20053;-76
2023/10/14 10:05:59;;;;;;;2.63;0.70;;;14.00;69.20;;;;;;5019025;28;20411;-76
2023/10/14 10:08:52;;;;;;;4.22;0.70;;;14.10;69.30;;;;;;5017125;28;20604;-76
2023/10/14 10:11:23;;;;;;;2.33;0.73;;;14.20;69.20;;;;;;5019239;28;20350;-76
2023/10/14 10:13:54;;;;;;;2.40;0.75;;;14.30;69.10;;;;;;5048516;28;20044;-76
2023/10/14 10:16:21;;;;;;;2.58;0.80;;;14.40;69.00;;;;;;5022801;28;20060;-76
2023/10/14 10:18:58;;;;;;;3.00;0.95;;;14.50;68.90;;;;;;5020510;28;20025;-77
2023/10/14 10:21:40;;;;;;;4.97;1.02;;;14.60;68.70;;;;;;5014619;28;20319;-77
2023/10/14 10:24:09;;;;;;;4.38;0.95;;;14.80;68.50;;;;;;4997727;28;20438;-77
2023/10/14 10:26:58;;;;;;;4.13;0.77;;;14.90;68.40;;;;;;5016040;28;20723;-78
2023/10/14 10:29:25;;;;;;;2.65;0.50;;;15.10;68.20;;;;;;5008635;28;20036;-77
2023/10/14 10:32:07;;;;;;;1.73;0.98;;;15.10;67.90;;;;;;5020079;28;20033;-78
2023/10/14 10:34:33;;;;;;;2.38;0.60;;;15.20;67.70;;;;;;5003814;28;20512;-79
2023/10/14 10:37:04;;;;;;;2.70;0.70;;;15.30;67.70;;;;;;5021608;28;20449;-78
2023/10/14 10:39:31;;;;;;;2.22;0.73;;;15.30;67.40;;;;;;5013250;28;20056;-78
2023/10/14 10:41:57;;;;;;;1.98;0.50;;;15.30;67.20;;;;;;5020529;28;20516;-78
2023/10/14 10:44:29;;;;;;;1.60;0.43;;;15.40;67.20;;;;;;5016412;28;20037;-79
2023/10/14 10:46:57;;;;;;;2.72;0.60;;;15.40;67.00;;;;;;5023434;28;20124;-78
2023/10/14 10:49:48;;;;;;;1.58;0.50;;;15.40;66.80;;;;;;5016538;28;20424;-79
2023/10/14 10:52:14;;;;;;;1.50;0.35;;;15.50;66.60;;;;;;5015432;28;20480;-79
2023/10/14 10:54:42;;;;;;;1.65;0.60;;;15.50;66.50;;;;;;5016735;28;20315;-79
2023/10/14 10:57:11;;;;;;;3.80;1.00;;;15.50;66.20;;;;;;5015865;28;20020;-78
2023/10/14 10:59:38;;;;;;;0.70;0.47;;;15.60;66.20;;;;;;5012371;28;20029;-79
2023/10/14 11:02:11;;;;;;;1.77;0.60;;;15.60;66.00;;;;;;5013291;28;20029;-77
2023/10/14 11:04:41;;;;;;;2.47;0.52;;;15.60;65.80;;;;;;4989508;28;20099;-78
2023/10/14 11:07:11;;;;;;;2.78;0.60;;;15.60;65.70;;;;;;4991871;28;20519;-79
2023/10/14 11:09:39;;;;;;;2.50;0.60;;;15.60;65.70;;;;;;5015506;28;20397;-79
2023/10/14 11:12:10;;;;;;;3.20;0.80;;;15.70;65.80;;;;;;5014877;28;20683;-77
2023/10/14 11:14:37;;;;;;;2.88;1.05;;;15.80;65.70;;;;;;5014645;28;20120;-79
2023/10/14 11:17:04;;;;;;;3.00;0.85;;;15.90;65.70;;;;;;5009991;28;20625;-78
2023/10/14 11:19:32;;;;;;;5.47;1.02;;;16.00;65.60;;;;;;5016112;28;20552;-77
2023/10/14 11:21:59;;;;;;;3.78;1.05;;;16.20;65.50;;;;;;5022770;28;20036;-77
2023/10/14 11:24:26;;;;;;;6.47;1.67;;;16.30;65.30;;;;;;5016841;28;20116;-78
2023/10/14 11:26:53;;;;;;;5.90;1.73;;;16.40;65.10;;;;;;5025253;28;20032;-79
2023/10/14 11:29:26;;;;;;;5.47;2.28;;;16.40;64.80;;;;;;5015164;28;20034;-81
2023/10/14 11:31:56;;;;;;;;;;;16.60;65.00;;;;;;4990667;28;20053;-78
2023/10/14 11:34:23;;;;;;;6.93;2.17;;;16.60;65.00;;;;;;5019843;28;19967;-78
2023/10/14 11:36:49;;;;;;;3.08;1.60;;;16.60;64.90;;;;;;5007534;28;20616;-77
2023/10/14 11:39:21;;;;;;;7.20;2.10;;;16.70;64.90;;;;;;5018941;28;20111;-77
2023/10/14 11:41:50;;;;;;;5.78;1.90;;;16.70;64.60;;;;;;5017895;28;20722;-78
2023/10/14 11:44:19;;;;;;;4.53;2.22;;;16.70;64.50;;;;;;5013031;28;20429;-79
2023/10/14 11:46:46;;;;;;;7.10;2.60;;;16.60;64.30;;;;;;5015047;28;20096;-79
2023/10/14 11:49:14;;;;;;;4.50;2.42;;;16.60;64.20;;;;;;5016122;28;20041;-79
2023/10/14 11:51:41;;;;;;;5.07;1.70;;;16.50;64.10;;;;;;5013546;28;20033;-79
2023/10/14 11:54:11;;;;;;;5.15;2.15;;;16.50;64.10;;;;;;5023102;28;20204;-79
2023/10/14 11:56:40;;;;;;;4.85;1.90;;;16.40;64.00;;;;;;5015191;28;20033;-79
2023/10/14 11:59:06;;;;;;;4.60;1.85;;;16.40;64.00;;;;;;5015373;28;20029;-77
2023/10/14 12:01:35;;;;;;;4.82;1.90;;;16.40;64.00;;;;;;5012172;28;20069;-80
2023/10/14 12:04:05;;;;;;;3.22;1.73;;;16.50;64.00;;;;;;5007733;28;20276;-74
2023/10/14 12:06:34;;;;;;;4.07;1.30;;;16.60;63.80;;;;;;5005529;28;20037;-78
2023/10/14 12:09:05;;;;;;;6.47;1.60;;;16.70;63.80;;;;;;5009644;28;20972;-80
2023/10/14 12:11:41;;;;;;;5.18;1.50;;;16.80;63.60;;;;;;5010443;28;20568;-78
2023/10/14 12:14:11;;;;;;;6.28;1.42;;;16.90;63.50;;;;;;5013869;28;20041;-78
2023/10/14 12:16:40;;;;;;;7.35;1.90;;;17.00;63.30;;;;;;5015686;28;20474;-78
2023/10/14 12:19:07;;;;;;;5.95;1.75;;;17.10;63.30;;;;;;5013815;28;20104;-77
2023/10/14 12:21:33;;;;;;;3.40;1.52;;;17.20;63.20;;;;;;5013559;28;20154;-78
2023/10/14 12:24:02;;;;;;;5.32;1.67;;;17.20;63.00;;;;;;4997382;28;21154;-78
2023/10/14 12:26:30;;;;;;;3.83;1.30;;;17.20;62.80;;;;;;5013399;28;20071;-79
2023/10/14 12:28:57;;;;;;;3.13;1.20;;;17.20;62.70;;;;;;5012819;28;20037;-78
2023/10/14 12:31:25;;;;;;;6.25;1.30;;;17.20;62.60;;;;;;5015685;28;20024;-77
2023/10/14 12:33:53;;;;;;;5.28;1.08;;;17.20;62.50;;;;;;5035292;28;20045;-77
2023/10/14 12:36:22;;;;;;;3.72;1.23;;;17.10;62.30;;;;;;5012168;28;20038;-78
2023/10/14 12:38:48;;;;;;;8.98;2.17;;;17.10;62.30;;;;;;4999722;28;20535;-77
2023/10/14 12:41:14;;;;;;;3.88;1.92;;;17.10;62.40;;;;;;5015012;28;20037;-78
2023/10/14 12:43:40;;;;;;;3.42;1.00;;;17.20;62.60;;;;;;5015823;28;20041;-78
2023/10/14 12:48:46;;;;;;;3.58;1.52;;;17.20;62.80;;;;;;5014342;28;20055;-78
2023/10/14 12:51:17;;;;;;;1.77;1.15;;;17.20;62.10;;;;;;5012264;28;20041;-77
2023/10/14 12:53:48;;;;;;;3.13;1.00;;;17.20;62.00;;;;;;5012222;28;20025;-78
2023/10/14 12:56:21;;;;;;;2.20;0.90;;;17.30;62.10;;;;;;4996206;28;20044;-77
2023/10/14 12:58:48;;;;;;;3.53;1.00;;;17.30;62.00;;;;;;5003014;28;20036;-77
2023/10/14 13:01:20;;;;;;;1.50;0.75;;;17.40;62.00;;;;;;4995419;28;20116;-78
2023/10/14 13:03:52;;;;;;;3.50;1.88;;;17.50;62.00;;;;;;5009742;28;20044;-78
2023/10/14 13:06:22;;;;;;;2.72;0.90;;;17.60;61.90;;;;;;5016815;28;20033;-76
2023/10/14 13:08:59;;;;;;;3.58;0.93;;;17.70;61.90;;;;;;5014916;28;20088;-79
2023/10/14 13:11:26;;;;;;;2.08;0.70;;;17.70;61.60;;;;;;5020647;28;20283;-77
2023/10/14 13:13:52;;;;;;;4.93;1.63;;;17.80;61.80;;;;;;5018543;28;20048;-77
2023/10/14 13:16:23;;;;;;;2.33;0.80;;;17.90;61.70;;;;;;5025352;28;20033;-76
2023/10/14 13:18:49;;;;;;;2.03;0.77;;;17.90;61.40;;;;;;5021293;28;20049;-77
2023/10/14 13:21:21;;;;;;;1.55;0.85;;;17.90;61.20;;;;;;5022417;28;20049;-76
2023/10/14 13:23:48;;;;;;;3.88;0.70;;;17.90;61.10;;;;;;5020711;28;20045;-78
2023/10/14 13:26:15;;;;;;;5.05;1.38;;;17.90;61.00;;;;;;5018033;28;20255;-77
2023/10/14 13:28:46;;;;;;;2.20;0.73;;;17.90;60.90;;;;;;5046499;28;20033;-76
2023/10/14 13:31:15;;;;;;;1.48;0.50;;;17.90;60.80;;;;;;5010083;28;20144;-76
2023/10/14 13:33:46;;;;;;;2.17;0.95;;;18.00;61.00;;;;;;5024232;28;20627;-76
2023/10/14 13:36:17;;;;;;;1.63;0.60;;;18.00;60.90;;;;;;5018564;28;20095;-79
2023/10/14 13:38:43;;;;;;;1.08;0.52;;;18.00;60.50;;;;;;5017648;28;20050;-77
2023/10/14 13:41:13;;;;;;;1.52;1.10;;;18.10;60.50;;;;;;5017782;28;20552;-77
2023/10/14 13:43:39;;;;;;;2.95;0.60;;;18.10;60.30;;;;;;5024046;28;20044;-78
2023/10/14 13:46:06;;;;;;;1.85;0.50;;;18.10;60.20;;;;;;5024951;28;20029;-77
2023/10/14 13:48:33;;;;;;;1.38;0.43;;;18.20;60.70;;;;;;5017170;28;20033;-76
2023/10/14 13:51:01;;;;;;;1.80;0.50;;;18.20;60.00;;;;;;5007181;28;20484;-76
2023/10/14 13:53:32;;;;;;;1.02;0.40;;;18.30;59.90;;;;;;5021997;28;20293;-75
2023/10/14 13:55:59;;;;;;;2.13;0.57;;;18.30;59.50;;;;;;5021215;28;20510;-78